sensor_id;sensor_type;location;lat;lon;timestamp;temperature;humidity
44579;DHT22;37422;51.402;0.016;2023-02-24T00:01:34;1.70;99.90
44579;DHT22;37422;51.402;0.016;2023-02-24T00:04:10;1.70;99.90
44579;DHT22;37422;51.402;0.016;2023-02-24T00:06:38;1.60;99.90
44579;DHT22;37422;51.402;0.016;2023-02-24T00:09:08;1.60;99.90
44579;DHT22;37422;51.402;0.016;2023-02-24T00:11:43;1.50;99.90
44579;DHT22;37422;51.402;0.016;2023-02-24T00:14:13;1.50;99.90
44579;DHT22;37422;51.402;0.016;2023-02-24T00:16:45;1.50;99.90
44579;DHT22;37422;51.402;0.016;2023-02-24T00:19:15;1.50;99.90
44579;DHT22;37422;51.402;0.016;2023-02-24T00:21:43;1.50;99.90
44579;DHT22;37422;51.402;0.016;2023-02-24T00:24:11;1.40;99.90
44579;DHT22;37422;51.402;0.016;2023-02-24T00:26:38;1.40;99.90
44579;DHT22;37422;51.402;0.016;2023-02-24T00:29:07;1.40;99.90
44579;DHT22;37422;51.402;0.016;2023-02-24T00:31:35;1.30;99.90
44579;DHT22;37422;51.402;0.016;2023-02-24T00:34:09;1.30;99.90
44579;DHT22;37422;51.402;0.016;2023-02-24T00:36:38;1.30;99.90
44579;DHT22;37422;51.402;0.016;2023-02-24T00:39:06;1.30;99.90
44579;DHT22;37422;51.402;0.016;2023-02-24T00:41:40;1.20;99.90
44579;DHT22;37422;51.402;0.016;2023-02-24T00:44:11;1.20;99.90
44579;DHT22;37422;51.402;0.016;2023-02-24T00:46:39;1.10;99.90
44579;DHT22;37422;51.402;0.016;2023-02-24T00:49:09;1.20;99.90
44579;DHT22;37422;51.402;0.016;2023-02-24T00:51:40;1.10;99.90
44579;DHT22;37422;51.402;0.016;2023-02-24T00:54:08;1.10;99.90
44579;DHT22;37422;51.402;0.016;2023-02-24T00:56:37;1.10;99.90
44579;DHT22;37422;51.402;0.016;2023-02-24T00:59:04;1.10;99.90
44579;DHT22;37422;51.402;0.016;2023-02-24T01:01:32;1.10;99.90
44579;DHT22;37422;51.402;0.016;2023-02-24T01:04:00;1.10;99.90
44579;DHT22;37422;51.402;0.016;2023-02-24T01:06:38;1.10;99.90
44579;DHT22;37422;51.402;0.016;2023-02-24T01:09:08;1.10;99.90
44579;DHT22;37422;51.402;0.016;2023-02-24T01:11:37;1.10;99.90
44579;DHT22;37422;51.402;0.016;2023-02-24T01:14:24;1.10;99.90
44579;DHT22;37422;51.402;0.016;2023-02-24T01:16:54;1.00;99.90
44579;DHT22;37422;51.402;0.016;2023-02-24T01:19:24;1.00;99.90
44579;DHT22;37422;51.402;0.016;2023-02-24T01:22:00;1.00;99.90
44579;DHT22;37422;51.402;0.016;2023-02-24T01:24:29;1.00;99.90
44579;DHT22;37422;51.402;0.016;2023-02-24T01:26:58;1.00;99.90
44579;DHT22;37422;51.402;0.016;2023-02-24T01:29:27;1.00;99.90
44579;DHT22;37422;51.402;0.016;2023-02-24T01:31:54;1.00;99.90
44579;DHT22;37422;51.402;0.016;2023-02-24T01:34:25;1.00;99.90
44579;DHT22;37422;51.402;0.016;2023-02-24T01:36:56;1.00;99.90
44579;DHT22;37422;51.402;0.016;2023-02-24T01:39:23;1.00;99.90
44579;DHT22;37422;51.402;0.016;2023-02-24T01:41:52;1.00;99.90
44579;DHT22;37422;51.402;0.016;2023-02-24T01:46:51;1.00;99.90
44579;DHT22;37422;51.402;0.016;2023-02-24T01:52:09;1.00;99.90
44579;DHT22;37422;51.402;0.016;2023-02-24T01:54:47;1.00;99.90
44579;DHT22;37422;51.402;0.016;2023-02-24T01:57:18;0.90;99.90
44579;DHT22;37422;51.402;0.016;2023-02-24T01:59:46;0.90;99.90
44579;DHT22;37422;51.402;0.016;2023-02-24T02:02:15;0.90;99.90
44579;DHT22;37422;51.402;0.016;2023-02-24T02:04:48;0.90;99.90
44579;DHT22;37422;51.402;0.016;2023-02-24T02:07:17;0.90;99.90
44579;DHT22;37422;51.402;0.016;2023-02-24T02:09:46;0.90;99.90
44579;DHT22;37422;51.402;0.016;2023-02-24T02:12:14;0.80;99.90
44579;DHT22;37422;51.402;0.016;2023-02-24T02:14:42;0.90;99.90
44579;DHT22;37422;51.402;0.016;2023-02-24T02:25:12;0.90;99.90
44579;DHT22;37422;51.402;0.016;2023-02-24T02:32:46;0.90;99.90
44579;DHT22;37422;51.402;0.016;2023-02-24T02:35:23;0.90;99.90
44579;DHT22;37422;51.402;0.016;2023-02-24T02:37:54;0.90;99.90
44579;DHT22;37422;51.402;0.016;2023-02-24T02:40:25;0.90;99.90
44579;DHT22;37422;51.402;0.016;2023-02-24T02:42:58;0.90;99.90
44579;DHT22;37422;51.402;0.016;2023-02-24T02:50:47;0.90;99.90
44579;DHT22;37422;51.402;0.016;2023-02-24T02:55:48;0.90;99.90
44579;DHT22;37422;51.402;0.016;2023-02-24T02:58:18;0.90;99.90
44579;DHT22;37422;51.402;0.016;2023-02-24T03:00:48;0.80;99.90
44579;DHT22;37422;51.402;0.016;2023-02-24T03:03:25;0.90;99.90
44579;DHT22;37422;51.402;0.016;2023-02-24T03:05:56;0.80;99.90
44579;DHT22;37422;51.402;0.016;2023-02-24T03:08:27;0.90;99.90
44579;DHT22;37422;51.402;0.016;2023-02-24T03:10:57;0.80;99.90
44579;DHT22;37422;51.402;0.016;2023-02-24T03:13:26;0.80;99.90
44579;DHT22;37422;51.402;0.016;2023-02-24T03:15:59;0.80;99.90
44579;DHT22;37422;51.402;0.016;2023-02-24T03:18:29;0.80;99.90
44579;DHT22;37422;51.402;0.016;2023-02-24T03:21:02;0.80;99.90
44579;DHT22;37422;51.402;0.016;2023-02-24T03:23:34;0.70;99.90
44579;DHT22;37422;51.402;0.016;2023-02-24T03:26:09;0.80;99.90
44579;DHT22;37422;51.402;0.016;2023-02-24T03:28:50;0.70;99.90
44579;DHT22;37422;51.402;0.016;2023-02-24T03:31:22;0.70;99.90
44579;DHT22;37422;51.402;0.016;2023-02-24T03:34:05;0.70;99.90
44579;DHT22;37422;51.402;0.016;2023-02-24T03:36:35;0.70;99.90
44579;DHT22;37422;51.402;0.016;2023-02-24T03:39:04;0.70;99.90
44579;DHT22;37422;51.402;0.016;2023-02-24T03:41:39;0.70;99.90
44579;DHT22;37422;51.402;0.016;2023-02-24T03:44:08;0.70;99.90
44579;DHT22;37422;51.402;0.016;2023-02-24T03:46:37;0.70;99.90
44579;DHT22;37422;51.402;0.016;2023-02-24T03:49:10;0.70;99.90
44579;DHT22;37422;51.402;0.016;2023-02-24T03:51:39;0.70;99.90
44579;DHT22;37422;51.402;0.016;2023-02-24T03:54:20;0.70;99.90
44579;DHT22;37422;51.402;0.016;2023-02-24T03:59:44;0.70;99.90
44579;DHT22;37422;51.402;0.016;2023-02-24T04:02:19;0.70;99.90
44579;DHT22;37422;51.402;0.016;2023-02-24T04:04:54;0.70;99.90
44579;DHT22;37422;51.402;0.016;2023-02-24T04:07:53;0.70;99.90
44579;DHT22;37422;51.402;0.016;2023-02-24T04:10:26;0.70;99.90
44579;DHT22;37422;51.402;0.016;2023-02-24T04:12:59;0.70;99.90
44579;DHT22;37422;51.402;0.016;2023-02-24T04:15:51;0.70;99.90
44579;DHT22;37422;51.402;0.016;2023-02-24T04:18:19;0.80;99.90
44579;DHT22;37422;51.402;0.016;2023-02-24T04:20:48;0.80;99.90
44579;DHT22;37422;51.402;0.016;2023-02-24T04:23:21;0.80;99.90
44579;DHT22;37422;51.402;0.016;2023-02-24T04:25:51;0.80;99.90
44579;DHT22;37422;51.402;0.016;2023-02-24T04:28:18;0.80;99.90
44579;DHT22;37422;51.402;0.016;2023-02-24T04:30:49;0.90;99.90
44579;DHT22;37422;51.402;0.016;2023-02-24T04:33:18;0.90;99.90
44579;DHT22;37422;51.402;0.016;2023-02-24T04:35:47;0.90;99.90
44579;DHT22;37422;51.402;0.016;2023-02-24T04:38:17;0.90;99.90
44579;DHT22;37422;51.402;0.016;2023-02-24T04:40:46;1.00;99.90
44579;DHT22;37422;51.402;0.016;2023-02-24T04:43:16;1.00;99.90
44579;DHT22;37422;51.402;0.016;2023-02-24T04:45:44;1.10;99.90
44579;DHT22;37422;51.402;0.016;2023-02-24T04:48:11;1.10;99.90
44579;DHT22;37422;51.402;0.016;2023-02-24T04:50:40;1.20;99.90
44579;DHT22;37422;51.402;0.016;2023-02-24T04:53:11;1.30;99.90
44579;DHT22;37422;51.402;0.016;2023-02-24T04:55:40;1.40;99.90
44579;DHT22;37422;51.402;0.016;2023-02-24T04:58:09;1.50;99.90
44579;DHT22;37422;51.402;0.016;2023-02-24T05:00:37;1.60;99.90
44579;DHT22;37422;51.402;0.016;2023-02-24T05:03:09;1.60;99.90
44579;DHT22;37422;51.402;0.016;2023-02-24T05:05:37;1.70;99.90
44579;DHT22;37422;51.402;0.016;2023-02-24T05:08:05;1.80;99.90
44579;DHT22;37422;51.402;0.016;2023-02-24T05:10:38;1.90;99.90
44579;DHT22;37422;51.402;0.016;2023-02-24T05:13:06;2.00;99.90
44579;DHT22;37422;51.402;0.016;2023-02-24T05:15:37;2.00;99.90
44579;DHT22;37422;51.402;0.016;2023-02-24T05:18:06;2.10;99.90
44579;DHT22;37422;51.402;0.016;2023-02-24T05:20:37;2.10;99.90
44579;DHT22;37422;51.402;0.016;2023-02-24T05:23:28;2.20;99.90
44579;DHT22;37422;51.402;0.016;2023-02-24T05:26:03;2.30;99.90
44579;DHT22;37422;51.402;0.016;2023-02-24T05:28:35;2.30;99.90
44579;DHT22;37422;51.402;0.016;2023-02-24T05:31:08;2.40;99.90
44579;DHT22;37422;51.402;0.016;2023-02-24T05:33:36;2.40;99.90
44579;DHT22;37422;51.402;0.016;2023-02-24T05:36:05;2.40;99.90
44579;DHT22;37422;51.402;0.016;2023-02-24T05:38:33;2.50;99.90
44579;DHT22;37422;51.402;0.016;2023-02-24T05:41:07;2.50;99.90
44579;DHT22;37422;51.402;0.016;2023-02-24T05:43:44;2.50;99.90
44579;DHT22;37422;51.402;0.016;2023-02-24T05:46:14;2.60;99.90
44579;DHT22;37422;51.402;0.016;2023-02-24T05:48:42;2.60;99.90
44579;DHT22;37422;51.402;0.016;2023-02-24T05:51:10;2.60;99.90
44579;DHT22;37422;51.402;0.016;2023-02-24T05:53:38;2.60;99.90
44579;DHT22;37422;51.402;0.016;2023-02-24T05:56:09;2.70;99.90
44579;DHT22;37422;51.402;0.016;2023-02-24T05:58:36;2.70;99.90
44579;DHT22;37422;51.402;0.016;2023-02-24T06:01:10;2.80;99.90
44579;DHT22;37422;51.402;0.016;2023-02-24T06:03:42;2.80;99.90
44579;DHT22;37422;51.402;0.016;2023-02-24T06:06:14;2.90;99.90
44579;DHT22;37422;51.402;0.016;2023-02-24T06:08:42;3.00;99.90
44579;DHT22;37422;51.402;0.016;2023-02-24T06:11:18;3.00;99.90
44579;DHT22;37422;51.402;0.016;2023-02-24T06:13:47;3.00;99.90
44579;DHT22;37422;51.402;0.016;2023-02-24T06:16:16;3.10;99.90
44579;DHT22;37422;51.402;0.016;2023-02-24T06:18:46;3.10;99.90
44579;DHT22;37422;51.402;0.016;2023-02-24T06:21:15;3.10;99.90
44579;DHT22;37422;51.402;0.016;2023-02-24T06:23:43;3.20;99.90
44579;DHT22;37422;51.402;0.016;2023-02-24T06:26:12;3.20;99.90
44579;DHT22;37422;51.402;0.016;2023-02-24T06:28:45;3.20;99.90
44579;DHT22;37422;51.402;0.016;2023-02-24T06:31:14;3.20;99.90
44579;DHT22;37422;51.402;0.016;2023-02-24T06:33:42;3.20;99.90
44579;DHT22;37422;51.402;0.016;2023-02-24T06:36:09;3.10;99.90
44579;DHT22;37422;51.402;0.016;2023-02-24T06:38:37;3.10;99.90
44579;DHT22;37422;51.402;0.016;2023-02-24T06:41:06;3.10;99.90
44579;DHT22;37422;51.402;0.016;2023-02-24T06:43:37;3.00;99.90
44579;DHT22;37422;51.402;0.016;2023-02-24T06:46:06;3.00;99.90
44579;DHT22;37422;51.402;0.016;2023-02-24T06:48:33;3.00;99.90
44579;DHT22;37422;51.402;0.016;2023-02-24T06:51:02;2.90;99.90
44579;DHT22;37422;51.402;0.016;2023-02-24T06:53:31;2.90;99.90
44579;DHT22;37422;51.402;0.016;2023-02-24T06:56:05;2.90;99.90
44579;DHT22;37422;51.402;0.016;2023-02-24T06:58:35;2.90;99.90
44579;DHT22;37422;51.402;0.016;2023-02-24T07:01:07;2.90;99.90
44579;DHT22;37422;51.402;0.016;2023-02-24T07:03:35;2.90;99.90
44579;DHT22;37422;51.402;0.016;2023-02-24T07:06:06;2.90;99.90
44579;DHT22;37422;51.402;0.016;2023-02-24T07:08:54;2.90;99.90
44579;DHT22;37422;51.402;0.016;2023-02-24T07:11:23;3.00;99.90
44579;DHT22;37422;51.402;0.016;2023-02-24T07:13:51;3.00;99.90
44579;DHT22;37422;51.402;0.016;2023-02-24T07:16:21;3.10;99.90
44579;DHT22;37422;51.402;0.016;2023-02-24T07:18:57;3.10;99.90
44579;DHT22;37422;51.402;0.016;2023-02-24T07:21:25;3.20;99.90
44579;DHT22;37422;51.402;0.016;2023-02-24T07:23:56;3.20;99.90
44579;DHT22;37422;51.402;0.016;2023-02-24T07:26:26;3.30;99.90
44579;DHT22;37422;51.402;0.016;2023-02-24T07:28:56;3.30;99.90
44579;DHT22;37422;51.402;0.016;2023-02-24T07:31:24;3.30;99.90
44579;DHT22;37422;51.402;0.016;2023-02-24T07:34:01;3.30;99.90
44579;DHT22;37422;51.402;0.016;2023-02-24T07:36:29;3.30;99.90
44579;DHT22;37422;51.402;0.016;2023-02-24T07:39:01;3.30;99.90
44579;DHT22;37422;51.402;0.016;2023-02-24T07:41:29;3.40;99.90
44579;DHT22;37422;51.402;0.016;2023-02-24T07:43:58;3.40;99.90
44579;DHT22;37422;51.402;0.016;2023-02-24T07:46:43;3.40;99.90
44579;DHT22;37422;51.402;0.016;2023-02-24T07:49:11;3.50;99.90
44579;DHT22;37422;51.402;0.016;2023-02-24T07:51:39;3.40;99.90
44579;DHT22;37422;51.402;0.016;2023-02-24T07:54:08;3.40;99.90
44579;DHT22;37422;51.402;0.016;2023-02-24T07:56:38;3.40;99.90
44579;DHT22;37422;51.402;0.016;2023-02-24T07:59:12;3.50;99.90
44579;DHT22;37422;51.402;0.016;2023-02-24T08:01:44;3.50;99.90
44579;DHT22;37422;51.402;0.016;2023-02-24T08:04:24;3.60;99.90
44579;DHT22;37422;51.402;0.016;2023-02-24T08:06:53;3.70;99.90
44579;DHT22;37422;51.402;0.016;2023-02-24T08:09:30;3.70;99.90
44579;DHT22;37422;51.402;0.016;2023-02-24T08:14:42;3.90;99.90
44579;DHT22;37422;51.402;0.016;2023-02-24T08:17:11;4.00;99.90
44579;DHT22;37422;51.402;0.016;2023-02-24T08:19:38;4.10;99.90
44579;DHT22;37422;51.402;0.016;2023-02-24T08:22:07;4.10;99.90
44579;DHT22;37422;51.402;0.016;2023-02-24T08:24:55;4.20;99.90
44579;DHT22;37422;51.402;0.016;2023-02-24T08:27:28;4.30;99.90
44579;DHT22;37422;51.402;0.016;2023-02-24T08:29:59;4.40;99.90
44579;DHT22;37422;51.402;0.016;2023-02-24T08:32:31;4.50;99.90
44579;DHT22;37422;51.402;0.016;2023-02-24T08:35:11;4.60;99.90
44579;DHT22;37422;51.402;0.016;2023-02-24T08:37:50;4.70;99.90
44579;DHT22;37422;51.402;0.016;2023-02-24T08:40:22;4.80;99.90
44579;DHT22;37422;51.402;0.016;2023-02-24T08:45:43;4.90;99.90
44579;DHT22;37422;51.402;0.016;2023-02-24T08:48:12;5.00;99.90
44579;DHT22;37422;51.402;0.016;2023-02-24T08:50:54;5.10;99.90
44579;DHT22;37422;51.402;0.016;2023-02-24T08:53:22;5.20;99.90
44579;DHT22;37422;51.402;0.016;2023-02-24T08:55:56;5.10;99.90
44579;DHT22;37422;51.402;0.016;2023-02-24T08:58:24;5.20;99.90
44579;DHT22;37422;51.402;0.016;2023-02-24T09:00:55;5.30;99.90
44579;DHT22;37422;51.402;0.016;2023-02-24T09:03:27;5.40;99.90
44579;DHT22;37422;51.402;0.016;2023-02-24T09:08:23;5.50;99.90
44579;DHT22;37422;51.402;0.016;2023-02-24T09:11:02;5.50;99.90
44579;DHT22;37422;51.402;0.016;2023-02-24T09:13:37;5.60;99.90
44579;DHT22;37422;51.402;0.016;2023-02-24T09:16:24;5.70;99.90
44579;DHT22;37422;51.402;0.016;2023-02-24T09:18:53;5.80;99.90
44579;DHT22;37422;51.402;0.016;2023-02-24T09:21:40;5.90;99.90
44579;DHT22;37422;51.402;0.016;2023-02-24T09:24:15;6.00;99.90
44579;DHT22;37422;51.402;0.016;2023-02-24T09:26:53;6.00;99.90
44579;DHT22;37422;51.402;0.016;2023-02-24T09:29:25;6.10;99.90
44579;DHT22;37422;51.402;0.016;2023-02-24T09:32:15;6.20;99.90
44579;DHT22;37422;51.402;0.016;2023-02-24T09:34:55;6.30;99.90
44579;DHT22;37422;51.402;0.016;2023-02-24T09:37:23;6.40;99.90
44579;DHT22;37422;51.402;0.016;2023-02-24T09:39:51;6.60;99.90
44579;DHT22;37422;51.402;0.016;2023-02-24T09:42:30;6.70;99.90
44579;DHT22;37422;51.402;0.016;2023-02-24T09:45:22;6.80;99.90
44579;DHT22;37422;51.402;0.016;2023-02-24T09:48:01;7.00;99.90
44579;DHT22;37422;51.402;0.016;2023-02-24T09:50:37;7.10;99.90
44579;DHT22;37422;51.402;0.016;2023-02-24T09:53:31;7.30;99.90
44579;DHT22;37422;51.402;0.016;2023-02-24T09:56:11;7.40;99.90
44579;DHT22;37422;51.402;0.016;2023-02-24T10:04:32;7.60;99.90
44579;DHT22;37422;51.402;0.016;2023-02-24T10:07:07;7.70;99.90
44579;DHT22;37422;51.402;0.016;2023-02-24T10:09:38;7.80;99.90
44579;DHT22;37422;51.402;0.016;2023-02-24T10:17:18;8.10;99.90
44579;DHT22;37422;51.402;0.016;2023-02-24T10:19:52;8.20;99.90
44579;DHT22;37422;51.402;0.016;2023-02-24T10:24:59;8.40;99.90
44579;DHT22;37422;51.402;0.016;2023-02-24T10:27:43;8.50;99.90
44579;DHT22;37422;51.402;0.016;2023-02-24T10:30:23;8.50;99.90
44579;DHT22;37422;51.402;0.016;2023-02-24T10:33:27;8.60;99.90
44579;DHT22;37422;51.402;0.016;2023-02-24T10:36:08;8.50;99.90
44579;DHT22;37422;51.402;0.016;2023-02-24T10:38:39;8.50;99.90
44579;DHT22;37422;51.402;0.016;2023-02-24T10:41:09;8.40;99.90
44579;DHT22;37422;51.402;0.016;2023-02-24T10:43:37;8.40;99.90
44579;DHT22;37422;51.402;0.016;2023-02-24T10:46:28;8.40;99.90
44579;DHT22;37422;51.402;0.016;2023-02-24T10:49:10;8.30;99.90
44579;DHT22;37422;51.402;0.016;2023-02-24T10:51:47;8.30;99.90
44579;DHT22;37422;51.402;0.016;2023-02-24T10:54:21;8.40;99.90
44579;DHT22;37422;51.402;0.016;2023-02-24T10:57:09;8.40;99.90
44579;DHT22;37422;51.402;0.016;2023-02-24T11:00:13;8.40;99.90
44579;DHT22;37422;51.402;0.016;2023-02-24T11:03:05;8.40;99.90
44579;DHT22;37422;51.402;0.016;2023-02-24T11:05:54;8.40;99.90
44579;DHT22;37422;51.402;0.016;2023-02-24T11:08:34;8.40;99.90
44579;DHT22;37422;51.402;0.016;2023-02-24T11:11:06;8.50;99.90
44579;DHT22;37422;51.402;0.016;2023-02-24T11:13:47;8.50;99.90
44579;DHT22;37422;51.402;0.016;2023-02-24T11:17:11;8.60;99.90
44579;DHT22;37422;51.402;0.016;2023-02-24T11:19:46;8.70;99.90
44579;DHT22;37422;51.402;0.016;2023-02-24T11:22:38;8.70;99.90
44579;DHT22;37422;51.402;0.016;2023-02-24T11:25:07;8.70;99.90
44579;DHT22;37422;51.402;0.016;2023-02-24T11:27:40;8.70;99.90
44579;DHT22;37422;51.402;0.016;2023-02-24T11:35:43;8.70;99.90
44579;DHT22;37422;51.402;0.016;2023-02-24T11:40:47;8.70;99.90
44579;DHT22;37422;51.402;0.016;2023-02-24T11:43:26;8.70;99.90
44579;DHT22;37422;51.402;0.016;2023-02-24T11:45:59;8.70;99.90
44579;DHT22;37422;51.402;0.016;2023-02-24T11:48:34;8.70;99.90
44579;DHT22;37422;51.402;0.016;2023-02-24T11:54:10;8.80;99.90
44579;DHT22;37422;51.402;0.016;2023-02-24T11:56:40;8.90;99.90
44579;DHT22;37422;51.402;0.016;2023-02-24T12:04:35;9.10;99.90
44579;DHT22;37422;51.402;0.016;2023-02-24T12:12:15;9.40;99.90
44579;DHT22;37422;51.402;0.016;2023-02-24T12:14:58;9.40;99.90
44579;DHT22;37422;51.402;0.016;2023-02-24T12:17:43;9.30;99.90
44579;DHT22;37422;51.402;0.016;2023-02-24T12:20:20;9.20;99.90
44579;DHT22;37422;51.402;0.016;2023-02-24T12:22:51;9.20;99.90
44579;DHT22;37422;51.402;0.016;2023-02-24T12:25:24;9.10;99.90
44579;DHT22;37422;51.402;0.016;2023-02-24T12:30:57;9.10;99.90
44579;DHT22;37422;51.402;0.016;2023-02-24T12:47:08;9.90;99.90
44579;DHT22;37422;51.402;0.016;2023-02-24T12:49:40;10.00;99.90
44579;DHT22;37422;51.402;0.016;2023-02-24T12:55:18;10.60;99.90
44579;DHT22;37422;51.402;0.016;2023-02-24T13:00:34;12.40;99.90
44579;DHT22;37422;51.402;0.016;2023-02-24T13:05:32;13.60;99.90
44579;DHT22;37422;51.402;0.016;2023-02-24T13:10:37;13.80;99.90
44579;DHT22;37422;51.402;0.016;2023-02-24T13:13:09;13.70;99.90
44579;DHT22;37422;51.402;0.016;2023-02-24T13:15:47;13.50;99.90
44579;DHT22;37422;51.402;0.016;2023-02-24T13:18:26;13.30;99.90
44579;DHT22;37422;51.402;0.016;2023-02-24T13:21:27;13.10;99.90
44579;DHT22;37422;51.402;0.016;2023-02-24T13:23:53;12.80;99.90
44579;DHT22;37422;51.402;0.016;2023-02-24T13:26:24;12.50;99.90
44579;DHT22;37422;51.402;0.016;2023-02-24T13:29:00;12.20;99.90
44579;DHT22;37422;51.402;0.016;2023-02-24T13:31:47;11.90;99.90
44579;DHT22;37422;51.402;0.016;2023-02-24T13:36:52;11.30;99.90
44579;DHT22;37422;51.402;0.016;2023-02-24T13:42:00;11.00;99.90
44579;DHT22;37422;51.402;0.016;2023-02-24T13:44:28;10.90;99.90
44579;DHT22;37422;51.402;0.016;2023-02-24T13:47:15;10.80;99.90
44579;DHT22;37422;51.402;0.016;2023-02-24T13:52:19;10.60;99.90
44579;DHT22;37422;51.402;0.016;2023-02-24T14:00:09;10.30;99.90
44579;DHT22;37422;51.402;0.016;2023-02-24T14:02:41;10.30;99.90
44579;DHT22;37422;51.402;0.016;2023-02-24T14:05:16;10.20;99.90
44579;DHT22;37422;51.402;0.016;2023-02-24T14:07:47;10.30;99.90
44579;DHT22;37422;51.402;0.016;2023-02-24T14:10:17;10.30;99.90
44579;DHT22;37422;51.402;0.016;2023-02-24T14:12:46;10.30;99.90
44579;DHT22;37422;51.402;0.016;2023-02-24T14:15:19;10.40;99.90
44579;DHT22;37422;51.402;0.016;2023-02-24T14:17:57;10.50;99.90
44579;DHT22;37422;51.402;0.016;2023-02-24T14:20:26;10.60;99.90
44579;DHT22;37422;51.402;0.016;2023-02-24T14:22:55;10.80;99.90
44579;DHT22;37422;51.402;0.016;2023-02-24T14:25:25;11.00;99.90
44579;DHT22;37422;51.402;0.016;2023-02-24T14:27:54;11.10;99.90
44579;DHT22;37422;51.402;0.016;2023-02-24T14:30:24;11.20;99.90
44579;DHT22;37422;51.402;0.016;2023-02-24T14:32:52;11.20;99.90
44579;DHT22;37422;51.402;0.016;2023-02-24T14:35:22;11.20;99.90
44579;DHT22;37422;51.402;0.016;2023-02-24T14:37:52;11.20;99.90
44579;DHT22;37422;51.402;0.016;2023-02-24T14:40:20;11.10;99.90
44579;DHT22;37422;51.402;0.016;2023-02-24T14:42:52;11.10;99.90
44579;DHT22;37422;51.402;0.016;2023-02-24T14:45:22;11.10;99.90
44579;DHT22;37422;51.402;0.016;2023-02-24T14:47:52;11.10;99.90
44579;DHT22;37422;51.402;0.016;2023-02-24T14:50:28;11.00;99.90
44579;DHT22;37422;51.402;0.016;2023-02-24T14:58:00;10.70;99.90
44579;DHT22;37422;51.402;0.016;2023-02-24T15:00:33;10.70;99.90
44579;DHT22;37422;51.402;0.016;2023-02-24T15:05:33;10.60;99.90
44579;DHT22;37422;51.402;0.016;2023-02-24T15:08:04;10.60;99.90
44579;DHT22;37422;51.402;0.016;2023-02-24T15:10:31;10.60;99.90
44579;DHT22;37422;51.402;0.016;2023-02-24T15:13:09;10.60;99.90
44579;DHT22;37422;51.402;0.016;2023-02-24T15:15:38;10.60;99.90
44579;DHT22;37422;51.402;0.016;2023-02-24T15:18:10;10.70;99.90
44579;DHT22;37422;51.402;0.016;2023-02-24T15:20:38;10.80;99.90
44579;DHT22;37422;51.402;0.016;2023-02-24T15:23:23;10.80;99.90
44579;DHT22;37422;51.402;0.016;2023-02-24T15:25:51;10.80;99.90
44579;DHT22;37422;51.402;0.016;2023-02-24T15:28:22;10.70;99.90
44579;DHT22;37422;51.402;0.016;2023-02-24T15:33:43;10.40;99.90
44579;DHT22;37422;51.402;0.016;2023-02-24T15:36:17;10.30;99.90
44579;DHT22;37422;51.402;0.016;2023-02-24T15:38:48;10.10;99.90
44579;DHT22;37422;51.402;0.016;2023-02-24T15:41:17;10.00;99.90
44579;DHT22;37422;51.402;0.016;2023-02-24T15:43:46;9.90;99.90
44579;DHT22;37422;51.402;0.016;2023-02-24T15:48:49;9.80;99.90
44579;DHT22;37422;51.402;0.016;2023-02-24T15:53:48;9.70;99.90
44579;DHT22;37422;51.402;0.016;2023-02-24T15:56:15;9.70;99.90
44579;DHT22;37422;51.402;0.016;2023-02-24T15:58:43;9.60;99.90
44579;DHT22;37422;51.402;0.016;2023-02-24T16:01:11;9.60;99.90
44579;DHT22;37422;51.402;0.016;2023-02-24T16:03:39;9.60;99.90
44579;DHT22;37422;51.402;0.016;2023-02-24T16:06:19;9.60;99.90
44579;DHT22;37422;51.402;0.016;2023-02-24T16:08:49;9.60;99.90
44579;DHT22;37422;51.402;0.016;2023-02-24T16:11:19;9.70;99.90
44579;DHT22;37422;51.402;0.016;2023-02-24T16:13:52;9.70;99.90
44579;DHT22;37422;51.402;0.016;2023-02-24T16:16:22;9.70;99.90
44579;DHT22;37422;51.402;0.016;2023-02-24T16:18:52;9.80;99.90
44579;DHT22;37422;51.402;0.016;2023-02-24T16:21:21;9.80;99.90
44579;DHT22;37422;51.402;0.016;2023-02-24T16:23:49;9.90;99.90
44579;DHT22;37422;51.402;0.016;2023-02-24T16:26:20;9.90;99.90
44579;DHT22;37422;51.402;0.016;2023-02-24T16:28:54;9.80;99.90
44579;DHT22;37422;51.402;0.016;2023-02-24T16:31:23;9.70;99.90
44579;DHT22;37422;51.402;0.016;2023-02-24T16:33:51;9.60;99.90
44579;DHT22;37422;51.402;0.016;2023-02-24T16:36:22;9.40;99.90
44579;DHT22;37422;51.402;0.016;2023-02-24T16:38:51;9.30;99.90
44579;DHT22;37422;51.402;0.016;2023-02-24T16:41:21;9.30;99.90
44579;DHT22;37422;51.402;0.016;2023-02-24T16:43:50;9.20;99.90
44579;DHT22;37422;51.402;0.016;2023-02-24T16:46:18;9.20;99.90
44579;DHT22;37422;51.402;0.016;2023-02-24T16:48:48;9.20;99.90
44579;DHT22;37422;51.402;0.016;2023-02-24T16:51:16;9.10;99.90
44579;DHT22;37422;51.402;0.016;2023-02-24T16:53:44;9.20;99.90
44579;DHT22;37422;51.402;0.016;2023-02-24T16:56:11;9.10;99.90
44579;DHT22;37422;51.402;0.016;2023-02-24T16:58:41;9.10;99.90
44579;DHT22;37422;51.402;0.016;2023-02-24T17:01:10;9.10;99.90
44579;DHT22;37422;51.402;0.016;2023-02-24T17:03:44;9.10;99.90
44579;DHT22;37422;51.402;0.016;2023-02-24T17:06:13;9.10;99.90
44579;DHT22;37422;51.402;0.016;2023-02-24T17:08:44;9.00;99.90
44579;DHT22;37422;51.402;0.016;2023-02-24T17:11:14;8.90;99.90
44579;DHT22;37422;51.402;0.016;2023-02-24T17:13:42;8.90;99.90
44579;DHT22;37422;51.402;0.016;2023-02-24T17:16:10;8.80;99.90
44579;DHT22;37422;51.402;0.016;2023-02-24T17:18:38;8.80;99.90
44579;DHT22;37422;51.402;0.016;2023-02-24T17:21:08;8.80;99.90
44579;DHT22;37422;51.402;0.016;2023-02-24T17:23:41;8.70;99.90
44579;DHT22;37422;51.402;0.016;2023-02-24T17:26:09;8.70;99.90
44579;DHT22;37422;51.402;0.016;2023-02-24T17:28:39;8.60;99.90
44579;DHT22;37422;51.402;0.016;2023-02-24T17:31:07;8.60;99.90
44579;DHT22;37422;51.402;0.016;2023-02-24T17:33:35;8.50;99.90
44579;DHT22;37422;51.402;0.016;2023-02-24T17:36:09;8.50;99.90
44579;DHT22;37422;51.402;0.016;2023-02-24T17:39:20;8.40;99.90
44579;DHT22;37422;51.402;0.016;2023-02-24T17:41:48;8.30;99.90
44579;DHT22;37422;51.402;0.016;2023-02-24T17:44:17;8.30;99.90
44579;DHT22;37422;51.402;0.016;2023-02-24T17:49:48;8.10;99.90
44579;DHT22;37422;51.402;0.016;2023-02-24T17:52:15;8.00;99.90
44579;DHT22;37422;51.402;0.016;2023-02-24T17:54:43;7.90;99.90
44579;DHT22;37422;51.402;0.016;2023-02-24T17:57:11;7.80;99.90
44579;DHT22;37422;51.402;0.016;2023-02-24T17:59:40;7.70;99.90
44579;DHT22;37422;51.402;0.016;2023-02-24T18:02:09;7.60;99.90
44579;DHT22;37422;51.402;0.016;2023-02-24T18:04:37;7.50;99.90
44579;DHT22;37422;51.402;0.016;2023-02-24T18:07:06;7.50;99.90
44579;DHT22;37422;51.402;0.016;2023-02-24T18:09:34;7.30;99.90
44579;DHT22;37422;51.402;0.016;2023-02-24T18:12:05;7.30;99.90
44579;DHT22;37422;51.402;0.016;2023-02-24T18:14:33;7.30;99.90
44579;DHT22;37422;51.402;0.016;2023-02-24T18:17:01;7.20;99.90
44579;DHT22;37422;51.402;0.016;2023-02-24T18:19:38;7.20;99.90
44579;DHT22;37422;51.402;0.016;2023-02-24T18:22:06;7.20;99.90
44579;DHT22;37422;51.402;0.016;2023-02-24T18:24:39;7.20;99.90
44579;DHT22;37422;51.402;0.016;2023-02-24T18:27:07;7.10;99.90
44579;DHT22;37422;51.402;0.016;2023-02-24T18:29:36;7.10;99.90